createdAt,value
2022-08-27T00:01:58.133Z,82.65
2022-08-27T00:04:55.093Z,82.10
2022-08-27T00:07:52.036Z,83.51
2022-08-27T00:10:48.995Z,82.92
2022-08-27T00:13:46.075Z,82.73
2022-08-27T00:16:43.262Z,84.01
2022-08-27T00:19:41.068Z,83.18
2022-08-27T00:22:38.114Z,83.03
2022-08-27T00:25:35.199Z,83.63
2022-08-27T00:28:33.428Z,82.66
2022-08-27T00:31:30.931Z,83.21
2022-08-27T00:34:27.940Z,83.21
2022-08-27T00:37:25.942Z,83.15
2022-08-27T00:40:23.419Z,82.40
2022-08-27T00:43:25.144Z,82.01
2022-08-27T00:46:25.655Z,82.93
2022-08-27T00:49:44.455Z,82.35
2022-08-27T00:52:51.578Z,81.46
2022-08-27T00:56:21.340Z,81.53
2022-08-27T00:59:19.467Z,81.77
2022-08-27T01:02:20.185Z,80.55
2022-08-27T01:05:19.268Z,80.72
2022-08-27T01:08:21.735Z,81.07
2022-08-27T01:11:18.899Z,80.40
2022-08-27T01:14:16.208Z,80.14
2022-08-27T01:17:15.047Z,80.21
2022-08-27T01:20:17.680Z,79.39
2022-08-27T01:23:27.589Z,79.24
2022-08-27T01:26:25.252Z,80.08
2022-08-27T01:29:21.658Z,80.95
2022-08-27T01:32:23.346Z,81.21
2022-08-27T01:35:21.475Z,81.49
2022-08-27T01:38:30.699Z,80.93
2022-08-27T01:41:28.888Z,80.98
2022-08-27T01:44:25.968Z,80.05
2022-08-27T01:47:23.947Z,80.39
2022-08-27T01:50:32.739Z,80.08
2022-08-27T01:53:30.469Z,80.54
2022-08-27T01:56:28.082Z,80.85
2022-08-27T01:59:25.706Z,80.98
2022-08-27T02:02:37.165Z,80.19
2022-08-27T02:05:43.799Z,80.64
2022-08-27T02:08:42.137Z,80.41
2022-08-27T02:11:44.797Z,80.59
2022-08-27T02:14:42.004Z,80.47
2022-08-27T02:17:39.279Z,80.24
2022-08-27T02:20:36.263Z,80.20
2022-08-27T02:23:33.219Z,80.24
2022-08-27T02:26:30.134Z,78.86
2022-08-27T02:29:27.422Z,79.42
2022-08-27T02:32:32.318Z,79.38
2022-08-27T02:35:31.089Z,78.50
2022-08-27T02:38:27.982Z,78.04
2022-08-27T02:41:25.098Z,77.80
2022-08-27T02:44:22.416Z,77.54
2022-08-27T02:47:19.957Z,78.12
2022-08-27T02:50:17.557Z,78.53
2022-08-27T02:53:14.859Z,78.41
2022-08-27T02:56:13.159Z,78.24
2022-08-27T02:59:15.102Z,79.25
2022-08-27T03:02:12.527Z,77.49
2022-08-27T03:05:11.432Z,78.45
2022-08-27T03:08:09.537Z,78.04
2022-08-27T03:11:09.904Z,77.76
2022-08-27T03:14:09.101Z,76.70
2022-08-27T03:17:25.052Z,77.29
2022-08-27T03:20:22.567Z,77.41
2022-08-27T03:23:22.584Z,77.83
2022-08-27T03:26:20.304Z,78.01
2022-08-27T03:29:16.943Z,77.81
2022-08-27T03:32:14.101Z,78.72
2022-08-27T03:35:11.777Z,77.56
2022-08-27T03:38:10.224Z,77.63
2022-08-27T03:41:07.205Z,77.06
2022-08-27T03:44:04.199Z,77.20
2022-08-27T03:47:01.505Z,78.45
2022-08-27T03:50:00.793Z,77.43
2022-08-27T03:52:58.443Z,77.44
2022-08-27T03:55:55.109Z,78.01
2022-08-27T03:58:52.297Z,77.66
2022-08-27T04:01:49.026Z,78.25
2022-08-27T04:04:45.980Z,78.04
2022-08-27T04:07:43.250Z,78.59
2022-08-27T04:10:41.077Z,78.72
2022-08-27T04:13:38.187Z,79.63
2022-08-27T04:16:35.775Z,80.41
2022-08-27T04:19:33.683Z,80.77
2022-08-27T04:22:31.022Z,80.07
2022-08-27T04:25:28.550Z,81.16
2022-08-27T04:28:26.475Z,80.93
2022-08-27T04:31:24.144Z,81.25
2022-08-27T04:34:21.176Z,80.24
2022-08-27T04:37:21.471Z,80.75
2022-08-27T04:40:20.309Z,80.99
2022-08-27T04:43:17.769Z,80.60
2022-08-27T04:46:22.704Z,80.91
2022-08-27T04:49:20.232Z,81.02
2022-08-27T04:52:17.099Z,80.89
2022-08-27T04:55:14.173Z,81.04
2022-08-27T04:58:11.393Z,80.27
2022-08-27T05:01:09.200Z,80.60
2022-08-27T05:04:06.483Z,81.63
2022-08-27T05:07:04.580Z,81.54
2022-08-27T05:10:02.463Z,80.52
2022-08-27T05:13:00.079Z,80.93
2022-08-27T05:15:59.059Z,80.89
2022-08-27T05:18:58.357Z,81.13
2022-08-27T05:21:55.013Z,80.93
2022-08-27T05:24:52.247Z,82.06
2022-08-27T05:27:49.140Z,82.10
2022-08-27T05:30:49.289Z,82.83
2022-08-27T05:33:52.057Z,81.80
2022-08-27T05:36:50.035Z,81.31
2022-08-27T05:39:46.972Z,81.04
2022-08-27T05:42:49.248Z,81.21
2022-08-27T05:45:48.783Z,82.08
2022-08-27T05:48:46.220Z,81.80
2022-08-27T05:51:43.508Z,80.96
2022-08-27T05:54:41.284Z,81.44
2022-08-27T05:57:38.576Z,82.61
2022-08-27T06:01:02.483Z,83.15
2022-08-27T06:04:01.530Z,83.29
2022-08-27T06:06:59.011Z,83.43
2022-08-27T06:09:58.144Z,83.36
2022-08-27T06:12:57.592Z,84.18
2022-08-27T06:16:03.325Z,84.37
2022-08-27T06:19:04.800Z,84.56
2022-08-27T06:22:09.766Z,83.72
2022-08-27T06:25:08.811Z,83.51
2022-08-27T06:28:06.680Z,84.14
2022-08-27T06:31:18.701Z,84.11
2022-08-27T06:34:16.755Z,82.70
2022-08-27T06:37:14.519Z,83.03
2022-08-27T06:40:11.816Z,84.38
2022-08-27T06:43:09.603Z,85.23
2022-08-27T06:46:09.426Z,86.22
2022-08-27T06:49:06.596Z,85.71
2022-08-27T06:52:04.312Z,84.96
2022-08-27T06:55:03.743Z,84.39
2022-08-27T06:58:01.887Z,84.42
2022-08-27T07:00:59.487Z,84.31
2022-08-27T07:03:58.386Z,82.65
2022-08-27T07:06:55.178Z,83.67
2022-08-27T07:09:52.618Z,83.93
2022-08-27T07:12:50.528Z,84.11
2022-08-27T07:15:47.598Z,84.70
2022-08-27T07:18:48.944Z,84.04
2022-08-27T07:21:46.338Z,84.41
2022-08-27T07:24:43.303Z,84.09
2022-08-27T07:27:40.498Z,83.90
2022-08-27T07:30:38.145Z,82.99
2022-08-27T07:33:36.391Z,84.25
2022-08-27T07:36:34.679Z,83.33
2022-08-27T07:39:32.486Z,83.70
2022-08-27T07:42:56.270Z,83.16
2022-08-27T07:45:56.278Z,81.80
2022-08-27T07:48:55.494Z,80.82
2022-08-27T07:51:52.611Z,81.61
2022-08-27T07:54:49.389Z,80.59
2022-08-27T07:57:48.071Z,80.53
2022-08-27T08:00:45.511Z,80.00
2022-08-27T08:03:42.243Z,79.46
2022-08-27T08:06:39.596Z,79.65
2022-08-27T08:09:36.647Z,80.29
2022-08-27T08:12:38.567Z,78.79
2022-08-27T08:15:35.952Z,78.18
2022-08-27T08:18:33.404Z,78.17
2022-08-27T08:21:30.258Z,77.38
2022-08-27T08:24:27.263Z,78.96
2022-08-27T08:27:24.508Z,75.49
2022-08-27T08:30:21.299Z,76.81
2022-08-27T08:33:18.630Z,74.76
2022-08-27T08:36:16.073Z,73.94
2022-08-27T08:39:13.591Z,74.98
2022-08-27T08:42:39.342Z,72.95
2022-08-27T08:45:36.901Z,73.52
2022-08-27T08:48:34.670Z,72.80
2022-08-27T08:51:36.972Z,72.67
2022-08-27T08:54:34.627Z,71.50
2022-08-27T08:57:35.480Z,70.80
2022-08-27T09:00:32.464Z,71.80
2022-08-27T09:03:29.339Z,71.64
2022-08-27T09:06:43.375Z,71.82
2022-08-27T09:10:03.972Z,72.63
2022-08-27T09:13:03.714Z,71.62
2022-08-27T09:16:02.479Z,71.88
2022-08-27T09:19:02.263Z,71.79
2022-08-27T09:22:10.375Z,71.70
2022-08-27T09:25:17.892Z,71.90
2022-08-27T09:28:44.360Z,72.05
2022-08-27T09:31:41.974Z,71.44
2022-08-27T09:34:41.003Z,71.28
2022-08-27T09:37:46.125Z,72.21
2022-08-27T09:40:48.317Z,70.55
2022-08-27T09:43:45.716Z,71.56
2022-08-27T09:46:52.467Z,71.35
2022-08-27T09:49:49.380Z,72.42
2022-08-27T09:52:59.357Z,70.26
2022-08-27T09:56:01.763Z,70.15
2022-08-27T09:59:04.829Z,71.58
2022-08-27T10:02:04.382Z,70.59
2022-08-27T10:05:13.928Z,69.44
2022-08-27T10:08:17.643Z,70.08
2022-08-27T10:11:26.314Z,71.81
2022-08-27T10:14:39.093Z,69.87
2022-08-27T10:18:21.458Z,69.22
2022-08-27T10:21:36.808Z,69.60
2022-08-27T10:24:57.817Z,68.96
2022-08-27T10:28:05.144Z,69.55
2022-08-27T10:31:31.442Z,68.97
2022-08-27T10:34:46.138Z,69.09
2022-08-27T10:38:11.873Z,70.87
2022-08-27T10:41:23.610Z,70.90
2022-08-27T10:44:31.867Z,70.90
2022-08-27T10:47:43.068Z,70.77
2022-08-27T10:50:40.446Z,70.17
2022-08-27T10:54:15.441Z,69.40
2022-08-27T10:57:39.938Z,70.11
2022-08-27T11:00:56.494Z,70.00
2022-08-27T11:04:18.682Z,69.57
2022-08-27T11:07:20.830Z,68.47
2022-08-27T11:10:24.802Z,67.76
2022-08-27T11:13:38.734Z,67.98
2022-08-27T11:16:45.418Z,69.53
2022-08-27T11:19:50.926Z,68.54
2022-08-27T11:22:57.044Z,67.98
2022-08-27T11:25:55.730Z,67.42
2022-08-27T11:29:01.470Z,68.83
2022-08-27T11:32:04.523Z,68.96
2022-08-27T11:35:23.094Z,68.65
2022-08-27T11:38:37.203Z,68.21
2022-08-27T11:41:56.594Z,68.37
2022-08-27T11:44:58.045Z,69.30
2022-08-27T11:47:58.500Z,68.52
2022-08-27T11:50:56.571Z,67.40
2022-08-27T11:54:01.967Z,66.94
2022-08-27T11:56:59.936Z,67.13
2022-08-27T11:59:57.966Z,69.83
2022-08-27T12:03:06.339Z,67.08
2022-08-27T12:06:10.093Z,67.24
2022-08-27T12:09:20.090Z,68.05
2022-08-27T12:12:56.479Z,67.42
2022-08-27T12:16:03.265Z,66.30
2022-08-27T12:19:31.414Z,66.53
2022-08-27T12:22:28.542Z,67.38
2022-08-27T12:25:25.766Z,68.34
2022-08-27T12:28:26.730Z,67.66
2022-08-27T12:31:24.658Z,68.34
2022-08-27T12:34:26.777Z,69.36
2022-08-27T12:37:27.495Z,67.61
2022-08-27T12:40:26.523Z,69.10
2022-08-27T12:43:26.277Z,67.64
2022-08-27T12:46:23.912Z,68.05
2022-08-27T12:49:37.888Z,65.96
2022-08-27T12:52:42.262Z,66.11
2022-08-27T12:56:01.673Z,65.65
2022-08-27T12:59:11.603Z,65.62
2022-08-27T13:02:43.982Z,64.59
2022-08-27T13:05:47.122Z,65.83
2022-08-27T13:08:44.742Z,65.96
2022-08-27T13:11:47.072Z,66.27
2022-08-27T13:14:44.742Z,65.55
2022-08-27T13:17:47.037Z,65.59
2022-08-27T13:20:52.712Z,64.99
2022-08-27T13:23:57.806Z,65.14
2022-08-27T13:26:57.327Z,64.30
2022-08-27T13:29:55.185Z,63.47
2022-08-27T13:32:53.135Z,64.90
2022-08-27T13:35:51.065Z,63.03
2022-08-27T13:38:50.337Z,64.88
2022-08-27T13:41:47.837Z,63.77
2022-08-27T13:44:48.170Z,63.80
2022-08-27T13:47:47.600Z,65.04
2022-08-27T13:50:50.124Z,64.34
2022-08-27T13:54:06.774Z,63.99
2022-08-27T13:57:09.989Z,63.41
2022-08-27T14:00:15.048Z,63.97
2022-08-27T14:03:34.639Z,62.96
2022-08-27T14:06:42.020Z,62.96
2022-08-27T14:09:47.834Z,62.34
2022-08-27T14:13:00.336Z,62.06
2022-08-27T14:15:59.228Z,62.13
2022-08-27T14:19:09.246Z,63.01
2022-08-27T14:22:06.664Z,62.36
2022-08-27T14:25:03.848Z,62.13
2022-08-27T14:28:00.787Z,60.73
2022-08-27T14:30:58.568Z,59.10
2022-08-27T14:33:55.755Z,60.20
2022-08-27T14:36:54.977Z,60.16
2022-08-27T14:39:53.102Z,60.24
2022-08-27T14:42:50.967Z,61.88
2022-08-27T14:45:48.755Z,60.32
2022-08-27T14:48:51.571Z,60.25
2022-08-27T14:51:49.151Z,60.83
2022-08-27T14:54:47.612Z,59.87
2022-08-27T14:57:45.606Z,60.36
2022-08-27T15:00:45.844Z,58.39
2022-08-27T15:03:49.642Z,59.85
2022-08-27T15:06:46.881Z,60.59
2022-08-27T15:09:46.682Z,59.50
2022-08-27T15:12:44.078Z,57.78
2022-08-27T15:15:41.505Z,58.73
2022-08-27T15:18:39.057Z,59.36
2022-08-27T15:21:37.391Z,58.33
2022-08-27T15:24:40.882Z,59.05
2022-08-27T15:27:39.165Z,58.67
2022-08-27T15:30:37.958Z,58.40
2022-08-27T15:33:34.888Z,58.25
2022-08-27T15:36:31.940Z,58.72
2022-08-27T15:39:28.761Z,60.68
2022-08-27T15:42:28.985Z,59.96
2022-08-27T15:45:27.503Z,59.02
2022-08-27T15:48:25.234Z,58.73
2022-08-27T15:51:30.248Z,58.94
2022-08-27T15:54:28.057Z,59.52
2022-08-27T15:57:24.974Z,57.81
2022-08-27T16:00:22.300Z,58.95
2022-08-27T16:03:19.959Z,57.54
2022-08-27T16:06:26.729Z,58.30
2022-08-27T16:09:24.397Z,57.43
2022-08-27T16:12:27.107Z,58.03
2022-08-27T16:15:25.164Z,58.47
2022-08-27T16:18:28.716Z,58.17
2022-08-27T16:21:26.099Z,58.78
2022-08-27T16:24:23.478Z,58.37
2022-08-27T16:27:20.927Z,59.07
2022-08-27T16:30:20.067Z,58.46
2022-08-27T16:33:23.435Z,58.23
2022-08-27T16:36:21.239Z,58.03
2022-08-27T16:39:18.631Z,58.63
2022-08-27T16:42:15.870Z,58.91
2022-08-27T16:45:14.368Z,59.03
2022-08-27T16:48:30.880Z,58.26
2022-08-27T16:51:32.638Z,59.16
2022-08-27T16:54:30.583Z,58.72
2022-08-27T16:57:27.836Z,58.44
2022-08-27T17:00:24.629Z,58.25
2022-08-27T17:03:22.451Z,58.42
2022-08-27T17:06:21.068Z,60.77
2022-08-27T17:09:19.903Z,60.52
2022-08-27T17:12:19.149Z,60.58
2022-08-27T17:15:17.254Z,61.61
2022-08-27T17:18:15.218Z,61.58
2022-08-27T17:21:13.167Z,61.84
2022-08-27T17:24:12.571Z,61.94
2022-08-27T17:27:10.056Z,61.11
2022-08-27T17:30:08.571Z,61.86
2022-08-27T17:33:06.869Z,61.45
2022-08-27T17:36:05.275Z,61.62
2022-08-27T17:39:03.944Z,61.28
2022-08-27T17:42:00.918Z,62.31
2022-08-27T17:44:59.251Z,62.77
2022-08-27T17:47:56.734Z,62.89
2022-08-27T17:50:54.131Z,62.07
2022-08-27T17:53:58.455Z,61.92
2022-08-27T17:56:59.179Z,63.07
2022-08-27T17:59:55.941Z,62.99
2022-08-27T18:02:53.738Z,64.00
2022-08-27T18:05:51.098Z,64.09
2022-08-27T18:08:48.175Z,64.79
2022-08-27T18:11:46.402Z,65.20
2022-08-27T18:14:49.598Z,65.65
2022-08-27T18:17:47.096Z,66.37
2022-08-27T18:20:44.700Z,65.67
2022-08-27T18:23:42.878Z,66.20
2022-08-27T18:26:39.959Z,66.77
2022-08-27T18:29:36.897Z,66.43
2022-08-27T18:32:33.755Z,66.97
2022-08-27T18:35:32.322Z,68.16
2022-08-27T18:38:29.705Z,68.58
2022-08-27T18:41:27.123Z,67.40
2022-08-27T18:44:24.677Z,66.51
2022-08-27T18:47:22.111Z,65.31
2022-08-27T18:50:19.433Z,65.06
2022-08-27T18:53:18.150Z,66.38
2022-08-27T18:56:16.707Z,64.39
2022-08-27T18:59:14.026Z,63.43
2022-08-27T19:02:14.810Z,64.86
2022-08-27T19:05:13.055Z,64.49
2022-08-27T19:08:10.178Z,63.74
2022-08-27T19:11:07.974Z,63.94
2022-08-27T19:14:05.270Z,64.18
2022-08-27T19:17:03.312Z,63.74
2022-08-27T19:20:01.554Z,63.81
2022-08-27T19:22:59.691Z,63.44
2022-08-27T19:25:57.571Z,63.96
2022-08-27T19:28:54.665Z,64.11
2022-08-27T19:31:52.248Z,64.41
2022-08-27T19:34:50.353Z,64.09
2022-08-27T19:37:53.220Z,64.33
2022-08-27T19:40:51.229Z,64.90
2022-08-27T19:43:48.292Z,64.77
2022-08-27T19:46:47.332Z,64.04
2022-08-27T19:49:49.866Z,64.14
2022-08-27T19:52:48.145Z,64.32
2022-08-27T19:55:46.124Z,64.47
2022-08-27T19:58:43.095Z,63.27
2022-08-27T20:01:40.273Z,64.48
2022-08-27T20:04:55.908Z,65.46
2022-08-27T20:07:53.035Z,65.43
2022-08-27T20:10:50.223Z,65.15
2022-08-27T20:13:50.457Z,64.64
2022-08-27T20:16:48.432Z,64.55
2022-08-27T20:19:46.201Z,65.53
2022-08-27T20:22:47.823Z,66.29
2022-08-27T20:25:45.438Z,64.84
2022-08-27T20:28:43.261Z,65.80
2022-08-27T20:31:41.291Z,65.28
2022-08-27T20:34:38.870Z,64.84
2022-08-27T20:37:40.010Z,65.50
2022-08-27T20:40:38.835Z,64.45
2022-08-27T20:43:36.338Z,65.33
2022-08-27T20:46:34.592Z,63.83
2022-08-27T20:49:32.332Z,64.40
2022-08-27T20:52:30.246Z,64.88
2022-08-27T20:55:27.064Z,65.53
2022-08-27T20:58:43.262Z,65.30
2022-08-27T21:01:40.225Z,65.27
2022-08-27T21:04:42.005Z,65.82
2022-08-27T21:07:39.020Z,66.44
2022-08-27T21:10:36.059Z,66.14
2022-08-27T21:13:32.792Z,68.14
2022-08-27T21:16:29.973Z,69.27
2022-08-27T21:19:26.922Z,69.21
2022-08-27T21:22:24.312Z,69.37
2022-08-27T21:25:24.547Z,69.67
2022-08-27T21:28:22.022Z,69.69
2022-08-27T21:31:19.294Z,68.58
2022-08-27T21:34:16.045Z,68.36
2022-08-27T21:37:14.050Z,67.65
2022-08-27T21:40:11.451Z,66.34
2022-08-27T21:43:08.855Z,67.35
2022-08-27T21:46:06.132Z,68.29
2022-08-27T21:49:02.938Z,67.18
2022-08-27T21:52:03.334Z,68.46
2022-08-27T21:54:59.989Z,68.53
2022-08-27T21:57:56.920Z,67.33
2022-08-27T22:00:54.045Z,67.10
2022-08-27T22:03:51.797Z,67.28
2022-08-27T22:06:49.049Z,68.12
2022-08-27T22:09:52.207Z,67.92
2022-08-27T22:12:49.032Z,68.91
2022-08-27T22:15:46.542Z,67.94
2022-08-27T22:18:44.497Z,68.28
2022-08-27T22:21:42.235Z,68.60
2022-08-27T22:24:39.054Z,67.73
2022-08-27T22:27:36.177Z,67.09
2022-08-27T22:30:32.760Z,66.91
2022-08-27T22:33:30.201Z,67.10
2022-08-27T22:36:27.192Z,68.25
2022-08-27T22:39:24.216Z,68.09
2022-08-27T22:42:22.005Z,68.12
2022-08-27T22:45:19.364Z,68.36
2022-08-27T22:48:15.986Z,68.65
2022-08-27T22:51:13.309Z,68.68
2022-08-27T22:54:10.222Z,68.22
2022-08-27T22:57:06.897Z,68.29
2022-08-27T23:00:11.763Z,71.36
2022-08-27T23:03:10.244Z,71.27
2022-08-27T23:06:07.077Z,70.35
2022-08-27T23:09:04.418Z,69.38
2022-08-27T23:12:01.407Z,68.93
2022-08-27T23:14:59.151Z,67.89
2022-08-27T23:17:56.759Z,68.74
2022-08-27T23:20:53.941Z,68.51
2022-08-27T23:23:50.932Z,69.41
2022-08-27T23:27:06.564Z,69.35
2022-08-27T23:30:04.777Z,70.09
2022-08-27T23:33:02.144Z,69.57
2022-08-27T23:35:59.002Z,69.37
2022-08-27T23:38:58.273Z,69.32
2022-08-27T23:41:55.480Z,69.22
2022-08-27T23:44:53.189Z,69.63
2022-08-27T23:47:50.238Z,68.78
2022-08-27T23:50:47.222Z,68.85
2022-08-27T23:53:44.249Z,68.83
2022-08-27T23:56:41.061Z,69.75
2022-08-27T23:59:37.933Z,69.17
